Time;durP1;ratioP1;P1;durP2;ratioP2;P2;SDS_P1;SDS_P2;PMS_P1;PMS_P2;Temp;Humidity;BMP_temperature;BMP_pressure;BME280_temperature;BME280_humidity;BME280_pressure;Samples;Min_cycle;Max_cycle;Signal;HPM_P1;HPM_P2
2021/06/25 00:02:00;;;;;;;7.65;1.67;;;;;16.60;100289.00;;;;5087759;28;20032;-79
2021/06/25 00:04:27;;;;;;;8.32;2.20;;;;;16.60;100303.00;;;;5087523;28;20028;-78
2021/06/25 00:06:54;;;;;;;8.45;1.60;;;;;16.60;100311.00;;;;5087771;28;20072;-78
2021/06/25 00:09:20;;;;;;;7.40;2.00;;;;;16.60;100313.00;;;;5087403;28;20517;-83
2021/06/25 00:11:47;;;;;;;5.15;1.85;;;;;16.50;100318.00;;;;5088103;28;20031;-76
2021/06/25 00:14:20;;;;;;;6.30;1.77;;;;;16.50;100317.00;;;;5087314;28;20553;-80
2021/06/25 00:16:47;;;;;;;11.05;1.80;;;;;16.60;100325.00;;;;5087058;28;20028;-81
2021/06/25 00:19:14;;;;;;;11.10;1.60;;;;;16.50;100346.00;;;;5087836;28;20035;-80
2021/06/25 00:21:41;;;;;;;9.02;1.95;;;;;16.40;100324.00;;;;5087512;28;20484;-82
2021/06/25 00:24:07;;;;;;;6.40;1.50;;;;;16.40;100345.00;;;;5086213;28;20154;-78
2021/06/25 00:26:34;;;;;;;5.68;1.98;;;;;16.30;100351.00;;;;5087123;28;20047;-80
2021/06/25 00:29:01;;;;;;;19.63;3.28;;;;;16.30;100343.00;;;;5087198;28;20031;-84
2021/06/25 00:31:28;;;;;;;7.80;2.00;;;;;16.40;100340.00;;;;5087053;28;20044;-81
2021/06/25 00:33:54;;;;;;;7.95;1.60;;;;;16.50;100346.00;;;;5087541;28;20043;-85
2021/06/25 00:36:21;;;;;;;4.95;1.40;;;;;16.30;100355.00;;;;5087050;28;20495;-78
2021/06/25 00:38:47;;;;;;;9.43;1.60;;;;;16.30;100371.00;;;;5087150;28;20129;-80
2021/06/25 00:41:14;;;;;;;6.93;1.98;;;;;16.20;100366.00;;;;5088396;28;20040;-82
2021/06/25 00:43:40;;;;;;;8.70;2.03;;;;;16.10;100375.00;;;;5088246;28;20035;-82
2021/06/25 00:46:07;;;;;;;7.30;2.17;;;;;15.90;100395.00;;;;5086511;28;20028;-78
2021/06/25 00:48:34;;;;;;;6.20;1.60;;;;;15.80;100400.00;;;;5086699;28;20077;-87
2021/06/25 00:51:01;;;;;;;3.40;1.50;;;;;15.70;100406.00;;;;5087643;28;20561;-77
2021/06/25 00:53:29;;;;;;;6.40;2.00;;;;;15.70;100403.00;;;;5086731;28;20557;-81
2021/06/25 00:55:55;;;;;;;6.45;1.88;;;;;15.50;100395.00;;;;5086702;28;20031;-78
2021/06/25 00:58:22;;;;;;;5.53;1.83;;;;;15.30;100414.00;;;;5086971;28;20048;-82
2021/06/25 01:00:49;;;;;;;5.45;1.90;;;;;15.20;100422.00;;;;5086831;28;20062;-81
2021/06/25 01:03:16;;;;;;;8.52;1.85;;;;;15.10;100417.00;;;;5086362;28;20674;-79
2021/06/25 01:05:43;;;;;;;22.13;2.53;;;;;14.90;100431.00;;;;5087109;28;20488;-82
2021/06/25 01:08:10;;;;;;;17.88;2.33;;;;;14.90;100434.00;;;;5086016;28;20111;-82
2021/06/25 01:10:40;;;;;;;9.90;2.30;;;;;15.10;100416.00;;;;5087140;28;20061;-79
2021/06/25 01:13:07;;;;;;;6.80;2.10;;;;;15.00;100419.00;;;;5086833;28;20032;-86
2021/06/25 01:15:34;;;;;;;9.57;2.35;;;;;14.90;100440.00;;;;5087186;28;20522;-83
2021/06/25 01:18:01;;;;;;;7.10;1.85;;;;;14.90;100423.00;;;;5087425;28;20106;-84
2021/06/25 01:20:30;;;;;;;3.42;1.92;;;;;14.80;100438.00;;;;5086441;28;20120;-79
2021/06/25 01:22:58;;;;;;;13.00;2.72;;;;;14.70;100432.00;;;;5087113;28;20043;-79
2021/06/25 01:25:31;;;;;;;7.45;1.98;;;;;14.50;100459.00;;;;5086084;28;20043;-80
2021/06/25 01:28:01;;;;;;;5.25;2.15;;;;;14.30;100461.00;;;;5068509;28;20054;-80
2021/06/25 01:30:30;;;;;;;8.90;2.05;;;;;14.10;100462.00;;;;5086999;28;20039;-84
2021/06/25 01:33:00;;;;;;;7.82;2.30;;;;;14.10;100482.00;;;;5087051;28;20028;-80
2021/06/25 01:35:26;;;;;;;4.97;2.20;;;;;14.20;100464.00;;;;5090104;28;20022;-83
2021/06/25 01:37:53;;;;;;;9.50;2.53;;;;;14.20;100442.00;;;;5090130;28;20057;-85
2021/06/25 01:40:22;;;;;;;9.23;2.20;;;;;14.30;100469.00;;;;5090640;28;20028;-84
2021/06/25 01:42:49;;;;;;;10.00;2.20;;;;;14.30;100503.00;;;;5090502;28;20032;-81
2021/06/25 01:45:23;;;;;;;9.43;2.45;;;;;14.50;100477.00;;;;5090385;28;20020;-83
2021/06/25 01:47:51;;;;;;;6.50;2.00;;;;;14.80;100493.00;;;;5071619;28;20038;-82
2021/06/25 01:50:19;;;;;;;11.50;2.05;;;;;14.90;100468.00;;;;5090083;28;20046;-84
2021/06/25 01:52:57;;;;;;;9.25;2.30;;;;;15.00;100490.00;;;;5090514;28;20020;-80
2021/06/25 01:55:25;;;;;;;8.93;1.80;;;;;15.30;100509.00;;;;5072461;28;20096;-82
2021/06/25 01:57:52;;;;;;;5.50;1.20;;;;;15.40;100493.00;;;;5089597;28;20044;-83
2021/06/25 02:00:19;;;;;;;8.93;1.70;;;;;15.50;100502.00;;;;5089640;28;20119;-85
2021/06/25 02:02:46;;;;;;;5.57;1.45;;;;;15.60;100500.00;;;;5090197;28;20036;-80
2021/06/25 02:05:15;;;;;;;8.02;1.10;;;;;15.60;100491.00;;;;5071438;28;20047;-80
2021/06/25 02:07:42;;;;;;;2.53;0.82;;;;;15.60;100505.00;;;;5090297;28;20031;-82
2021/06/25 02:10:11;;;;;;;2.42;0.70;;;;;15.60;100495.00;;;;5089882;28;20094;-84
2021/06/25 02:12:38;;;;;;;1.70;1.00;;;;;15.70;100500.00;;;;5090199;28;20582;-82
2021/06/25 02:15:07;;;;;;;2.45;1.00;;;;;15.50;100497.00;;;;5090100;28;20028;-81
2021/06/25 02:17:34;;;;;;;3.80;1.33;;;;;15.40;100492.00;;;;5089622;28;20044;-78
2021/06/25 02:20:00;;;;;;;5.85;1.08;;;;;15.40;100490.00;;;;5089421;28;20024;-80
2021/06/25 02:22:27;;;;;;;2.13;0.68;;;;;15.40;100479.00;;;;5090387;28;20085;-77
2021/06/25 02:24:53;;;;;;;3.17;0.80;;;;;15.40;100492.00;;;;5089665;28;20062;-80
2021/06/25 02:27:20;;;;;;;3.08;1.17;;;;;15.40;100485.00;;;;5090007;28;20073;-78
2021/06/25 02:29:46;;;;;;;4.03;0.75;;;;;15.50;100504.00;;;;5089808;28;20024;-78
2021/06/25 02:32:13;;;;;;;0.52;0.50;;;;;15.50;100499.00;;;;5089510;28;20390;-78
2021/06/25 02:34:39;;;;;;;4.72;1.17;;;;;15.50;100486.00;;;;5090127;28;20708;-81
2021/06/25 02:37:06;;;;;;;1.70;0.60;;;;;15.40;100499.00;;;;5071893;28;20032;-84
2021/06/25 02:39:33;;;;;;;3.70;0.73;;;;;15.30;100513.00;;;;5089506;28;20057;-77
2021/06/25 02:41:59;;;;;;;2.88;0.52;;;;;15.20;100503.00;;;;5090011;28;20483;-81
2021/06/25 02:44:26;;;;;;;2.78;0.43;;;;;15.20;100512.00;;;;5089008;28;20069;-84
2021/06/25 02:46:52;;;;;;;2.85;0.30;;;;;15.10;100509.00;;;;5088888;28;20047;-82
2021/06/25 02:49:19;;;;;;;0.50;0.40;;;;;15.10;100520.00;;;;5089255;28;20038;-81
2021/06/25 02:51:46;;;;;;;0.85;0.50;;;;;15.00;100506.00;;;;5089344;28;20036;-82
2021/06/25 02:54:12;;;;;;;1.08;0.30;;;;;14.80;100516.00;;;;5088963;28;20028;-80
2021/06/25 02:56:39;;;;;;;0.93;0.50;;;;;14.80;100519.00;;;;5088526;28;20040;-82
2021/06/25 02:59:05;;;;;;;1.98;0.70;;;;;14.70;100526.00;;;;5088937;28;20085;-81
2021/06/25 03:01:32;;;;;;;1.00;0.73;;;;;14.70;100518.00;;;;5089528;28;20117;-79
2021/06/25 03:03:59;;;;;;;0.60;0.35;;;;;14.70;100519.00;;;;5088907;28;20410;-83
2021/06/25 03:06:26;;;;;;;0.45;0.32;;;;;14.80;100531.00;;;;5088767;28;20032;-89
2021/06/25 03:08:53;;;;;;;3.42;0.30;;;;;14.90;100533.00;;;;5088535;28;20115;-82
2021/06/25 03:11:20;;;;;;;1.80;0.40;;;;;14.90;100539.00;;;;5089403;28;20669;-81
2021/06/25 03:13:46;;;;;;;1.65;0.40;;;;;14.90;100537.00;;;;5070284;28;20854;-81
2021/06/25 03:16:13;;;;;;;1.38;0.40;;;;;15.00;100535.00;;;;5088921;28;20110;-81
2021/06/25 03:18:40;;;;;;;0.28;0.28;;;;;15.00;100521.00;;;;5088094;28;20043;-79
2021/06/25 03:21:06;;;;;;;1.10;0.50;;;;;15.00;100536.00;;;;5088912;28;20035;-80
2021/06/25 03:23:33;;;;;;;2.05;0.40;;;;;15.10;100538.00;;;;5088698;28;20036;-78
2021/06/25 03:25:59;;;;;;;2.80;0.50;;;;;15.10;100541.00;;;;5088033;28;20027;-80
2021/06/25 03:28:26;;;;;;;2.47;0.60;;;;;15.00;100540.00;;;;5088029;28;20024;-77
2021/06/25 03:30:53;;;;;;;0.32;0.30;;;;;15.10;100541.00;;;;5088641;28;20509;-79
2021/06/25 03:33:19;;;;;;;0.45;0.40;;;;;15.10;100541.00;;;;5088853;28;20613;-82
2021/06/25 03:35:46;;;;;;;0.55;0.30;;;;;15.20;100536.00;;;;5088525;28;20030;-80
2021/06/25 03:38:13;;;;;;;2.72;0.30;;;;;15.20;100551.00;;;;5087679;28;20035;-80
2021/06/25 03:40:39;;;;;;;0.30;0.30;;;;;15.20;100558.00;;;;5088507;28;20119;-79
2021/06/25 03:43:06;;;;;;;3.67;0.30;;;;;15.20;100548.00;;;;5088170;28;20491;-81
2021/06/25 03:45:33;;;;;;;3.20;0.20;;;;;15.20;100538.00;;;;5088406;28;20036;-78
2021/06/25 03:47:59;;;;;;;0.20;0.20;;;;;15.20;100543.00;;;;5088456;28;20020;-82
2021/06/25 03:50:26;;;;;;;1.48;0.40;;;;;15.10;100554.00;;;;5087803;28;20032;-78
2021/06/25 03:52:52;;;;;;;1.00;0.32;;;;;15.10;100532.00;;;;5087737;28;20562;-80
2021/06/25 03:55:19;;;;;;;0.88;0.43;;;;;15.00;100551.00;;;;5087903;28;20491;-81
2021/06/25 03:57:46;;;;;;;2.95;0.38;;;;;14.90;100544.00;;;;5086504;28;20418;-79
2021/06/25 04:00:15;;;;;;;0.90;0.30;;;;;14.80;100557.00;;;;5069255;28;20433;-83
2021/06/25 04:02:41;;;;;;;0.80;0.40;;;;;14.70;100561.00;;;;5087679;28;20122;-81
2021/06/25 04:05:11;;;;;;;2.28;0.47;;;;;14.70;100550.00;;;;5087440;28;20485;-83
2021/06/25 04:07:39;;;;;;;3.67;0.50;;;;;14.60;100552.00;;;;5088035;28;20112;-80
2021/06/25 04:10:08;;;;;;;4.03;0.45;;;;;14.50;100555.00;;;;5087732;28;20085;-83
2021/06/25 04:12:35;;;;;;;1.35;0.38;;;;;14.30;100557.00;;;;5092563;28;20058;-79
2021/06/25 04:15:02;;;;;;;0.30;0.30;;;;;14.30;100567.00;;;;5087693;28;20031;-79
2021/06/25 04:17:29;;;;;;;1.30;0.60;;;;;14.30;100553.00;;;;5087961;28;20114;-83
2021/06/25 04:19:56;;;;;;;1.17;0.40;;;;;14.10;100550.00;;;;5087194;28;20032;-82
2021/06/25 04:22:22;;;;;;;0.93;0.45;;;;;14.10;100560.00;;;;5087572;28;20036;-86
2021/06/25 04:24:49;;;;;;;1.20;0.45;;;;;14.20;100580.00;;;;5087356;28;20026;-81
2021/06/25 04:27:16;;;;;;;0.75;0.40;;;;;14.30;100577.00;;;;5087358;28;20024;-79
2021/06/25 04:29:45;;;;;;;4.70;0.60;;;;;14.30;100587.00;;;;5087660;28;20052;-82
2021/06/25 04:32:12;;;;;;;0.40;0.40;;;;;14.20;100596.00;;;;5087554;28;20073;-78
2021/06/25 04:34:39;;;;;;;1.88;0.43;;;;;14.40;100608.00;;;;5087316;28;20107;-80
2021/06/25 04:37:06;;;;;;;2.00;0.50;;;;;14.40;100607.00;;;;5087048;28;20028;-81
2021/06/25 04:39:32;;;;;;;1.10;0.68;;;;;14.40;100596.00;;;;5087459;28;20434;-80
2021/06/25 04:41:59;;;;;;;1.50;0.38;;;;;14.40;100600.00;;;;5087154;28;20032;-83
2021/06/25 04:44:26;;;;;;;0.70;0.28;;;;;14.40;100577.00;;;;5087238;28;20028;-82
2021/06/25 04:46:52;;;;;;;7.32;0.60;;;;;14.40;100594.00;;;;5086991;28;20028;-83
2021/06/25 04:49:19;;;;;;;0.35;0.35;;;;;14.50;100593.00;;;;5086891;28;20081;-81
2021/06/25 04:51:45;;;;;;;2.65;0.60;;;;;14.50;100596.00;;;;5086951;28;20029;-83
2021/06/25 04:54:12;;;;;;;0.82;0.38;;;;;14.50;100594.00;;;;5087315;28;20055;-82
2021/06/25 04:56:39;;;;;;;0.50;0.45;;;;;14.50;100593.00;;;;5087087;28;20534;-81
2021/06/25 04:59:05;;;;;;;0.45;0.45;;;;;14.50;100607.00;;;;5086921;28;20032;-81
2021/06/25 05:01:32;;;;;;;0.30;0.30;;;;;14.50;100606.00;;;;5086407;28;20036;-79
2021/06/25 05:03:59;;;;;;;0.82;0.32;;;;;14.50;100619.00;;;;5086833;28;20040;-79
2021/06/25 05:06:25;;;;;;;0.75;0.50;;;;;14.50;100606.00;;;;5086540;28;20028;-80
2021/06/25 05:08:52;;;;;;;1.85;0.60;;;;;14.50;100602.00;;;;5089718;28;20586;-86
2021/06/25 05:11:18;;;;;;;0.85;0.40;;;;;14.40;100607.00;;;;5090914;28;20089;-81
2021/06/25 05:13:45;;;;;;;0.30;0.30;;;;;14.40;100591.00;;;;5091123;28;20760;-81
2021/06/25 05:16:12;;;;;;;0.57;0.38;;;;;14.40;100578.00;;;;5091444;28;20032;-82
2021/06/25 05:18:38;;;;;;;1.23;0.40;;;;;14.50;100593.00;;;;5090403;28;20511;-86
2021/06/25 05:21:05;;;;;;;0.68;0.35;;;;;14.50;100604.00;;;;5090365;28;20079;-85
2021/06/25 05:23:32;;;;;;;1.52;0.47;;;;;14.50;100619.00;;;;5072657;28;20920;-82
2021/06/25 05:25:58;;;;;;;4.55;0.50;;;;;14.50;100610.00;;;;5091025;28;20028;-79
2021/06/25 05:28:25;;;;;;;1.95;0.40;;;;;14.60;100606.00;;;;5091552;28;20032;-82
2021/06/25 05:30:51;;;;;;;3.92;0.63;;;;;14.60;100609.00;;;;5090848;28;20025;-78
2021/06/25 05:33:18;;;;;;;3.80;0.50;;;;;14.60;100606.00;;;;5090381;28;20082;-81
2021/06/25 05:35:45;;;;;;;0.95;0.50;;;;;14.60;100622.00;;;;5090861;28;20047;-84
2021/06/25 05:38:16;;;;;;;2.72;0.40;;;;;14.60;100625.00;;;;5091062;28;20140;-84
2021/06/25 05:40:44;;;;;;;0.43;0.30;;;;;14.50;100609.00;;;;5090561;28;20074;-80
2021/06/25 05:43:11;;;;;;;2.40;0.30;;;;;14.60;100632.00;;;;5090913;28;20075;-85
2021/06/25 05:45:38;;;;;;;13.77;1.65;;;;;14.60;100637.00;;;;5090160;28;20106;-81
2021/06/25 05:48:06;;;;;;;2.58;0.40;;;;;14.60;100616.00;;;;5071793;28;20556;-80
2021/06/25 05:50:33;;;;;;;0.40;0.40;;;;;14.60;100624.00;;;;5072216;28;20036;-77
2021/06/25 05:52:59;;;;;;;0.60;0.30;;;;;14.60;100620.00;;;;5090167;28;20028;-84
2021/06/25 05:55:26;;;;;;;0.77;0.30;;;;;14.70;100603.00;;;;5090435;28;20024;-80
2021/06/25 05:57:53;;;;;;;0.35;0.20;;;;;14.70;100616.00;;;;5090779;28;20052;-78
2021/06/25 06:00:19;;;;;;;0.40;0.30;;;;;14.70;100605.00;;;;5089928;28;20020;-78
2021/06/25 06:02:46;;;;;;;0.30;0.30;;;;;14.70;100608.00;;;;5090597;28;20035;-79
2021/06/25 06:05:14;;;;;;;0.20;0.20;;;;;14.70;100618.00;;;;5090155;28;20134;-79
2021/06/25 06:07:41;;;;;;;0.28;0.25;;;;;14.70;100597.00;;;;5090096;28;20051;-80
2021/06/25 06:10:11;;;;;;;1.85;0.30;;;;;14.70;100617.00;;;;5089603;28;20028;-81
2021/06/25 06:12:38;;;;;;;0.10;0.10;;;;;14.70;100617.00;;;;5090007;28;20020;-79
2021/06/25 06:15:06;;;;;;;0.30;0.30;;;;;14.70;100624.00;;;;5091266;28;20060;-83
2021/06/25 06:17:32;;;;;;;1.92;0.30;;;;;14.70;100625.00;;;;5089663;28;20082;-80
2021/06/25 06:19:59;;;;;;;0.22;0.22;;;;;14.60;100626.00;;;;5089640;28;20032;-79
2021/06/25 06:33:36;;;;;;;0.30;0.30;;;;;14.60;100623.00;;;;5090191;28;20039;-79
2021/06/25 06:36:05;;;;;;;0.40;0.40;;;;;14.50;100623.00;;;;5089282;28;20407;-78
2021/06/25 06:38:31;;;;;;;2.15;0.30;;;;;14.50;100622.00;;;;5089164;28;20028;-77
2021/06/25 06:40:58;;;;;;;0.30;0.30;;;;;14.50;100637.00;;;;5089639;28;20036;-79
2021/06/25 06:43:24;;;;;;;0.68;0.20;;;;;14.50;100629.00;;;;5089923;28;20024;-87
2021/06/25 06:45:51;;;;;;;4.07;0.50;;;;;14.40;100629.00;;;;5091201;28;20024;-78
2021/06/25 06:48:18;;;;;;;0.30;0.30;;;;;14.30;100630.00;;;;5090742;28;20090;-86
2021/06/25 06:50:44;;;;;;;0.98;0.40;;;;;14.30;100651.00;;;;5088763;28;20390;-78
2021/06/25 06:53:11;;;;;;;3.92;0.60;;;;;14.20;100640.00;;;;5089760;28;20028;-81
2021/06/25 06:55:43;;;;;;;1.38;0.30;;;;;14.20;100619.00;;;;5091038;28;20103;-84
2021/06/25 06:58:11;;;;;;;5.53;0.47;;;;;14.10;100636.00;;;;5089889;28;20131;-83
2021/06/25 07:00:38;;;;;;;0.35;0.30;;;;;14.10;100645.00;;;;5090150;28;20038;-79
2021/06/25 07:03:06;;;;;;;2.53;0.40;;;;;14.20;100657.00;;;;5088783;28;20561;-85
2021/06/25 07:05:32;;;;;;;0.90;0.40;;;;;14.20;100661.00;;;;5089882;28;20032;-80
2021/06/25 07:07:59;;;;;;;6.13;0.50;;;;;14.20;100634.00;;;;5089489;28;20035;-79
2021/06/25 07:10:25;;;;;;;0.47;0.38;;;;;14.20;100651.00;;;;5089343;28;20031;-78
2021/06/25 07:12:52;;;;;;;1.45;0.30;;;;;14.20;100639.00;;;;5090212;28;20051;-78
2021/06/25 07:15:19;;;;;;;0.57;0.40;;;;;14.20;100643.00;;;;5088698;28;20032;-82
2021/06/25 07:17:45;;;;;;;0.40;0.30;;;;;14.20;100636.00;;;;5089824;28;20020;-79
2021/06/25 07:20:12;;;;;;;0.75;0.45;;;;;14.20;100644.00;;;;5089474;28;20509;-82
2021/06/25 07:22:39;;;;;;;0.65;0.50;;;;;14.10;100650.00;;;;5091094;28;20035;-84
2021/06/25 07:25:06;;;;;;;0.50;0.40;;;;;14.10;100654.00;;;;5090221;28;20514;-82
2021/06/25 07:27:33;;;;;;;2.17;0.50;;;;;14.10;100644.00;;;;5089550;28;20544;-84
2021/06/25 07:29:59;;;;;;;3.15;0.30;;;;;14.10;100653.00;;;;5089119;28;20028;-81
2021/06/25 07:32:27;;;;;;;1.35;0.40;;;;;14.10;100648.00;;;;5089756;28;20020;-82
2021/06/25 07:34:54;;;;;;;2.15;0.50;;;;;14.10;100647.00;;;;5089139;28;20035;-77
2021/06/25 07:37:21;;;;;;;0.98;0.32;;;;;14.00;100650.00;;;;5090676;28;20031;-81
2021/06/25 07:39:47;;;;;;;0.30;0.30;;;;;14.00;100671.00;;;;5070810;28;20443;-80
2021/06/25 07:42:14;;;;;;;0.88;0.40;;;;;14.00;100679.00;;;;5089354;28;20032;-83
2021/06/25 07:44:41;;;;;;;2.58;0.40;;;;;14.00;100670.00;;;;5087994;28;20036;-82
2021/06/25 07:47:08;;;;;;;0.57;0.40;;;;;14.00;100653.00;;;;5088732;28;20032;-82
2021/06/25 07:49:35;;;;;;;0.52;0.50;;;;;14.00;100672.00;;;;5088151;28;20123;-83
2021/06/25 07:52:01;;;;;;;0.57;0.57;;;;;13.90;100654.00;;;;5090086;28;20035;-81
2021/06/25 07:54:29;;;;;;;0.47;0.47;;;;;13.80;100660.00;;;;5088906;28;20027;-80
2021/06/25 07:56:55;;;;;;;1.02;0.50;;;;;13.80;100666.00;;;;5088005;28;20052;-82
2021/06/25 07:59:22;;;;;;;0.22;0.22;;;;;13.80;100675.00;;;;5071147;28;20054;-80
2021/06/25 08:01:49;;;;;;;1.98;0.43;;;;;13.80;100670.00;;;;5090376;28;20593;-82
2021/06/25 08:04:15;;;;;;;2.78;0.50;;;;;13.80;100684.00;;;;5088257;28;20054;-79
2021/06/25 08:06:42;;;;;;;0.40;0.40;;;;;13.80;100679.00;;;;5089578;28;20027;-78
2021/06/25 08:09:09;;;;;;;0.90;0.40;;;;;13.70;100696.00;;;;5089742;28;20020;-81
2021/06/25 08:11:36;;;;;;;3.40;0.88;;;;;13.70;100679.00;;;;5087794;28;20034;-82
2021/06/25 08:14:03;;;;;;;1.52;0.50;;;;;13.60;100659.00;;;;5089759;28;20035;-82
2021/06/25 08:16:30;;;;;;;2.75;0.40;;;;;13.60;100688.00;;;;5087676;28;20047;-79
2021/06/25 08:19:00;;;;;;;1.88;0.40;;;;;13.50;100691.00;;;;5086665;28;20566;-80
2021/06/25 08:21:29;;;;;;;0.52;0.40;;;;;13.50;100704.00;;;;5088177;28;20047;-79
2021/06/25 08:23:57;;;;;;;1.20;0.50;;;;;13.50;100691.00;;;;5087990;28;20054;-82
2021/06/25 08:26:23;;;;;;;0.50;0.50;;;;;13.40;100686.00;;;;5086693;28;20502;-80
2021/06/25 08:28:50;;;;;;;3.33;0.90;;;;;13.40;100697.00;;;;5088623;28;20039;-85
2021/06/25 08:31:17;;;;;;;0.70;0.60;;;;;13.40;100712.00;;;;5087967;28;20028;-84
2021/06/25 08:33:43;;;;;;;1.15;0.57;;;;;13.40;100697.00;;;;5087904;28;20024;-83
2021/06/25 08:36:10;;;;;;;0.63;0.52;;;;;13.40;100704.00;;;;5087207;28;20024;-83
2021/06/25 08:38:37;;;;;;;2.05;0.80;;;;;13.40;100723.00;;;;5087066;28;20044;-81
2021/06/25 08:41:04;;;;;;;2.08;0.70;;;;;13.40;100708.00;;;;5087181;28;20028;-81
2021/06/25 08:43:31;;;;;;;6.80;0.90;;;;;13.30;100712.00;;;;5089417;28;20376;-80
2021/06/25 08:46:00;;;;;;;1.95;0.60;;;;;13.30;100713.00;;;;5088202;28;20445;-80
2021/06/25 08:48:27;;;;;;;1.50;0.60;;;;;13.30;100721.00;;;;5087262;28;20024;-83
2021/06/25 08:50:56;;;;;;;2.25;0.85;;;;;13.30;100733.00;;;;5087277;28;20028;-84
2021/06/25 08:53:23;;;;;;;12.38;1.00;;;;;13.30;100740.00;;;;5088458;28;20067;-84
2021/06/25 08:55:50;;;;;;;12.73;0.93;;;;;13.30;100749.00;;;;5086560;28;20582;-81
2021/06/25 08:58:19;;;;;;;0.95;0.60;;;;;13.30;100759.00;;;;5069626;28;20075;-84
2021/06/25 09:00:46;;;;;;;5.68;1.75;;;;;13.20;100772.00;;;;5086992;28;20040;-85
2021/06/25 09:03:26;;;;;;;1.52;0.80;;;;;13.30;100762.00;;;;5086480;28;20072;-80
2021/06/25 09:06:06;;;;;;;5.03;1.23;;;;;13.30;100740.00;;;;5086794;28;20433;-83
2021/06/25 09:08:32;;;;;;;7.13;1.48;;;;;13.30;100756.00;;;;5087142;28;20051;-79
2021/06/25 09:11:01;;;;;;;1.60;0.63;;;;;13.20;100742.00;;;;5090173;28;20387;-83
2021/06/25 09:13:38;;;;;;;6.35;0.80;;;;;13.10;100756.00;;;;5087411;28;20073;-80
2021/06/25 09:16:23;;;;;;;1.67;0.70;;;;;13.00;100752.00;;;;5076665;28;20040;-81
2021/06/25 09:19:15;;;;;;;4.18;1.30;;;;;13.00;100758.00;;;;5093707;28;20028;-79
2021/06/25 09:22:02;;;;;;;1.38;0.70;;;;;13.00;100740.00;;;;5091703;28;20398;-83
2021/06/25 09:24:29;;;;;;;2.08;1.00;;;;;12.80;100763.00;;;;5089104;28;20482;-80
2021/06/25 09:27:07;;;;;;;0.95;0.90;;;;;12.60;100767.00;;;;5091288;28;20027;-88
2021/06/25 09:29:37;;;;;;;3.70;0.93;;;;;12.50;100768.00;;;;5088619;28;20476;-81
2021/06/25 09:32:09;;;;;;;11.25;1.27;;;;;12.60;100789.00;;;;5088029;28;20024;-79
2021/06/25 09:34:50;;;;;;;3.53;1.55;;;;;12.60;100797.00;;;;5086906;28;20034;-82
2021/06/25 09:37:20;;;;;;;1.20;0.80;;;;;12.60;100774.00;;;;5084811;28;20113;-81
2021/06/25 09:40:03;;;;;;;2.83;0.77;;;;;12.70;100807.00;;;;5086625;28;20074;-80
2021/06/25 09:42:29;;;;;;;8.25;1.27;;;;;12.70;100812.00;;;;5085879;28;20032;-83
2021/06/25 09:45:17;;;;;;;2.28;1.10;;;;;12.70;100824.00;;;;5085634;28;20036;-84
2021/06/25 09:47:54;;;;;;;7.25;2.42;;;;;12.70;100826.00;;;;5085396;28;20077;-84
2021/06/25 09:50:28;;;;;;;2.20;0.90;;;;;12.70;100827.00;;;;5085282;28;20024;-82
2021/06/25 09:52:59;;;;;;;2.67;1.10;;;;;12.70;100836.00;;;;5085658;28;20028;-78
2021/06/25 09:55:51;;;;;;;5.65;1.27;;;;;12.50;100854.00;;;;5087313;28;20105;-83
2021/06/25 10:03:58;;;;;;;6.75;1.58;;;;;12.30;100828.00;;;;5089974;28;20031;-83
2021/06/25 10:06:35;;;;;;;3.92;1.50;;;;;12.30;100818.00;;;;5088808;28;20024;-80
2021/06/25 10:09:02;;;;;;;28.30;2.30;;;;;12.40;100838.00;;;;5089348;28;20425;-85
2021/06/25 10:11:31;;;;;;;8.02;2.90;;;;;12.30;100848.00;;;;5089626;28;20052;-84
2021/06/25 10:14:03;;;;;;;6.03;1.80;;;;;12.20;100846.00;;;;5070981;28;20032;-83
2021/06/25 10:16:29;;;;;;;;;;;;;12.20;100873.00;;;;5088951;28;20085;-83
2021/06/25 10:18:58;;;;;;;6.30;2.25;;;;;12.20;100863.00;;;;5088922;28;20007;-83
2021/06/25 10:21:30;;;;;;;10.77;1.95;;;;;12.10;100865.00;;;;5089349;28;20036;-83
2021/06/25 10:23:59;;;;;;;14.57;2.80;;;;;12.00;100875.00;;;;5089536;28;20426;-77
2021/06/25 10:26:27;;;;;;;14.52;2.05;;;;;12.00;100859.00;;;;5089306;28;20067;-79
2021/06/25 10:28:55;;;;;;;13.80;2.78;;;;;11.90;100870.00;;;;5089858;28;20487;-81
2021/06/25 10:31:23;;;;;;;4.07;1.80;;;;;11.90;100897.00;;;;5088174;28;20089;-82
2021/06/25 10:33:52;;;;;;;9.32;2.17;;;;;12.00;100880.00;;;;5088582;28;20111;-79
2021/06/25 10:36:23;;;;;;;18.85;2.53;;;;;12.10;100885.00;;;;5088081;28;20114;-79
2021/06/25 10:38:50;;;;;;;9.35;2.70;;;;;12.20;100905.00;;;;5087873;28;20074;-82
2021/06/25 10:41:18;;;;;;;7.75;1.55;;;;;12.30;100898.00;;;;5088429;28;20036;-83
2021/06/25 10:43:53;;;;;;;5.68;1.80;;;;;12.30;100895.00;;;;5087979;28;20039;-81
2021/06/25 10:46:29;;;;;;;27.85;3.35;;;;;12.40;100916.00;;;;5088754;28;20027;-85
2021/06/25 10:48:58;;;;;;;13.63;2.70;;;;;12.50;100901.00;;;;5088624;28;20046;-83
2021/06/25 10:51:35;;;;;;;4.30;1.67;;;;;12.70;100911.00;;;;5088454;28;20036;-80
2021/06/25 10:54:10;;;;;;;5.97;2.25;;;;;12.70;100937.00;;;;5088211;28;20032;-81
2021/06/25 10:56:42;;;;;;;4.55;1.75;;;;;12.70;100914.00;;;;5088108;28;20534;-81
2021/06/25 10:59:32;;;;;;;11.55;2.00;;;;;12.80;100935.00;;;;5088222;28;20047;-85
2021/06/25 11:02:00;;;;;;;18.10;2.83;;;;;12.80;100942.00;;;;5087915;28;20028;-80
2021/06/25 11:04:42;;;;;;;8.02;2.08;;;;;12.80;100920.00;;;;5087667;28;20403;-84
2021/06/25 11:07:42;;;;;;;3.25;1.52;;;;;13.00;100916.00;;;;5087954;28;20487;-80
2021/06/25 11:10:09;;;;;;;9.13;2.03;;;;;13.00;100936.00;;;;5088106;28;20032;-80
2021/06/25 11:12:39;;;;;;;8.13;3.47;;;;;14.00;100887.00;;;;5088300;28;20059;-80
2021/06/25 11:15:05;;;;;;;6.93;2.10;;;;;14.10;100952.00;;;;5087749;28;20019;-79
2021/06/25 11:17:54;;;;;;;6.05;2.70;;;;;13.70;100958.00;;;;5088409;28;20495;-82
2021/06/25 11:20:24;;;;;;;13.93;3.17;;;;;14.20;100926.00;;;;5087448;28;20028;-82
2021/06/25 11:23:02;;;;;;;7.10;2.33;;;;;13.50;100978.00;;;;5087913;28;20043;-84
2021/06/25 11:26:29;;;;;;;8.98;2.50;;;;;15.20;100868.00;;;;5087485;28;20114;-81
2021/06/25 11:28:56;;;;;;;5.13;1.48;;;;;15.80;100836.00;;;;4982423;28;20043;-82
2021/06/25 11:31:25;;;;;;;2.40;1.60;;;;;17.90;100813.00;;;;5085884;28;20055;-82
2021/06/25 11:33:56;;;;;;;16.35;4.60;;;;;19.00;100804.00;;;;5087226;28;20048;-85
2021/06/25 11:36:53;;;;;;;4.85;3.60;;;;;20.50;100762.00;;;;5087553;28;20032;-82
2021/06/25 11:39:37;;;;;;;8.85;3.03;;;;;21.50;100762.00;;;;5086976;28;20149;-80
2021/06/25 11:42:14;;;;;;;12.15;2.70;;;;;21.30;100782.00;;;;5087721;28;20032;-80
2021/06/25 11:44:47;;;;;;;17.38;3.05;;;;;19.90;100776.00;;;;5087208;28;20020;-81
2021/06/25 11:47:41;;;;;;;4.97;1.90;;;;;17.50;100797.00;;;;5086422;28;20483;-80
2021/06/25 11:50:15;;;;;;;4.50;2.03;;;;;16.50;100826.00;;;;5085636;28;20024;-85
2021/06/25 11:52:42;;;;;;;5.75;2.13;;;;;18.80;100763.00;;;;5086835;28;20028;-84
2021/06/25 11:55:13;;;;;;;5.28;2.00;;;;;20.90;100775.00;;;;5086037;28;20043;-80
2021/06/25 11:57:41;;;;;;;9.65;2.47;;;;;21.40;100795.00;;;;5086521;28;20060;-80
2021/06/25 12:00:21;;;;;;;18.10;4.03;;;;;22.60;100807.00;;;;5086005;28;20043;-79
2021/06/25 12:02:56;;;;;;;2.35;2.00;;;;;22.80;100815.00;;;;5086325;28;20475;-84
2021/06/25 12:05:31;;;;;;;6.88;2.92;;;;;23.70;100839.00;;;;5086896;28;20566;-83
2021/06/25 12:08:14;;;;;;;8.85;2.08;;;;;23.00;100843.00;;;;5068132;28;20104;-79
2021/06/25 12:10:43;;;;;;;4.03;2.08;;;;;23.00;100816.00;;;;5086378;28;20443;-83
2021/06/25 12:13:12;;;;;;;16.63;3.47;;;;;22.20;100820.00;;;;5086608;28;20028;-86
2021/06/25 12:15:46;;;;;;;10.50;3.17;;;;;22.90;100828.00;;;;5085442;28;20031;-78
2021/06/25 12:18:30;;;;;;;15.77;3.83;;;;;23.80;100808.00;;;;5086169;28;20031;-82
2021/06/25 12:21:11;;;;;;;11.13;3.15;;;;;23.60;100908.00;;;;5086441;28;20044;-80
2021/06/25 12:23:38;;;;;;;4.80;2.80;;;;;23.60;100868.00;;;;5087273;28;20032;-81
2021/06/25 12:26:17;;;;;;;4.47;2.53;;;;;22.60;100930.00;;;;5085538;28;20057;-80
2021/06/25 12:28:44;;;;;;;4.22;2.38;;;;;22.30;100817.00;;;;5086213;28;20066;-83
2021/06/25 12:31:16;;;;;;;16.15;3.55;;;;;21.00;100962.00;;;;5086355;28;20469;-79
2021/06/25 12:33:43;;;;;;;6.25;2.60;;;;;20.50;100908.00;;;;5086089;28;20031;-83
2021/06/25 12:36:13;;;;;;;3.97;2.63;;;;;20.10;100922.00;;;;5086142;28;20047;-79